• Join FlightAware (Why Join?)
  • Login
  • US Flag 
01:28AM EDT


 

Airport Tracker/Info


-or-


 

Live Flight TrackerFlight Track Log ✈ N2619G ✈ 07-May-2012 ✈ KEVB - MYAM / MHH

Flight Track Log - Related Links

Times and Time Zones

All times are in EDT time to prevent confusion due to time zone crossing. See the N2619G flight status page for this flight to view local times or setup timezone preferences in your user account.

Time Position Orientation Groundspeed Altitude Reporting Facility
EDT Latitude Longitude Course Direction KTS MPH feet Rate Location/Type
01:35PM 29.0381 -80.8953 94° East 125 144 1,600  Level Jacksonville Center
01:37PM 29.0333 -80.8167 90° East 134 154 3,100 960 Climbing Orlando TRACON
01:38PM 29.0333 -80.7833 120° Southeast 137 158 4,200 1,020 Climbing Orlando TRACON
01:39PM 29.0167 -80.7500 139° Southeast 138 159 5,300 900 Climbing Orlando TRACON
01:40PM 28.9833 -80.7167 156° South 135 155 6,200 960 Climbing Orlando TRACON
01:41PM 28.9500 -80.7000 156° South 142 163 7,300 1,080 Climbing Orlando TRACON
01:42PM 28.9167 -80.6833 139° Southeast 135 155 8,400 1,080 Climbing Orlando TRACON
01:43PM 28.8833 -80.6500 156° South 142 163 9,500 1,140 Climbing Orlando TRACON
01:44PM 28.8500 -80.6333 139° Southeast 141 162 10,800 1,080 Climbing Orlando TRACON
01:45PM 28.8167 -80.6000 138° Southeast 148 170 11,800 540 Climbing Orlando TRACON
01:46PM 28.7828 -80.5650 143° Southeast 200 230 12,000 60 Climbing Miami Center
01:47PM 28.7378 -80.5258 124° Southeast 212 244 12,000 540 Level Miami Center
01:48PM 28.7100 -80.4797 127° Southeast 197 227 13,100 900 Climbing Miami Center
01:49PM 28.6817 -80.4364 125° Southeast 176 203 13,800 600 Climbing Miami Center
01:50PM 28.6517 -80.3881 124° Southeast 176 203 14,400 660 Climbing Miami Center
01:51PM 28.6256 -80.3447 127° Southeast 176 203 15,200 720 Climbing Miami Center
01:52PM 28.5953 -80.2989 125° Southeast 176 203 15,900 600 Climbing Miami Center
01:53PM 28.5672 -80.2531 125° Southeast 176 203 16,500 540 Climbing Miami Center
01:54PM 28.5392 -80.2072 125° Southeast 176 203 17,000 240 Climbing Miami Center
01:55PM 28.5069 -80.1544 126° Southeast 182 209 17,000  Level Miami Center
01:56PM 28.4747 -80.1039 128° Southeast 188 216 17,000  Level Miami Center
01:57PM 28.4383 -80.0508 123° Southeast 203 234 17,000  Level Miami Center
01:58PM 28.4083 -79.9981 128° Southeast 203 234 17,000  Level Miami Center
01:59PM 28.3719 -79.9453 125° Southeast 203 234 17,000  Level Miami Center
02:00PM 28.3394 -79.8925 125° Southeast 203 234 17,000  Level Miami Center
02:01PM 28.3072 -79.8397 128° Southeast 203 234 17,000  Level Miami Center
02:02PM 28.2728 -79.7892 125° Southeast 203 234 17,000  Level Miami Center
02:03PM 28.2406 -79.7367 124° Southeast 203 234 17,000  Level Miami Center
02:04PM 28.2081 -79.6817 129° Southeast 203 234 17,000  Level Miami Center
02:05PM 28.1717 -79.6311 122° Southeast 203 234 17,000  Level Miami Center
02:06PM 28.1414 -79.5761 130° Southeast 203 234 17,000  Level Miami Center
02:07PM 28.1047 -79.5258 122° Southeast 203 234 17,000  Level Miami Center
02:08PM 28.0744 -79.4711 127° Southeast 203 234 17,000  Level Miami Center
02:09PM 28.0397 -79.4186 127° Southeast 203 234 17,000  Level Miami Center
02:10PM 28.0053 -79.3661 125° Southeast 203 234 17,000  Level Miami Center
02:11PM 27.9728 -79.3136 127° Southeast 203 234 17,000  Level Miami Center
02:12PM 27.9381 -79.2611 127° Southeast 203 234 17,000  Level Miami Center
02:13PM 27.9036 -79.2086 122° Southeast 198 228 17,000  Level Miami Center
02:14PM 27.8711 -79.1492 127° Southeast 203 234 17,000  Level Miami Center
02:15PM 27.8364 -79.0969 128° Southeast 203 234 17,000  Level Miami Center
02:16PM 27.8036 -79.0494 123° Southeast 203 234 17,000  Level Miami Center
02:17PM 27.7733 -78.9972 123° Southeast 203 234 17,000  Level Miami Center
02:18PM 27.7406 -78.9403 129° Southeast 196 226 17,000  Level Miami Center
02:19PM 27.7017 -78.8856 124° Southeast 202 232 17,000  Level Miami Center
02:20PM 27.6731 -78.8381 130° Southeast 202 232 17,000  Level Miami Center
02:21PM 27.6364 -78.7883 124° Southeast 207 238 17,000  Level Miami Center
02:22PM 27.6017 -78.7292 131° Southeast 202 232 17,000  Level Miami Center
02:23PM 27.5708 -78.6886 126° Southeast 202 232 17,000  Level Miami Center
02:24PM 27.5339 -78.6319 128° Southeast 202 232 17,000  Level Miami Center
02:25PM 27.4989 -78.5822 122° Southeast 202 232 17,000  Level Miami Center
02:26PM 27.4683 -78.5278 132° Southeast 202 232 17,000  Level Miami Center
02:27PM 27.4292 -78.4781 123° Southeast 202 232 17,000  Level Miami Center
02:28PM 27.3983 -78.4239 127° Southeast 207 238 17,000  Level Miami Center
02:29PM 27.3656 -78.3744 128° Southeast 202 232 17,000  Level Miami Center
02:30PM 27.3244 -78.3153 125° Southeast 209 241 17,000  Level Miami Center
02:31PM 27.2936 -78.2658 128° Southeast 209 241 17,000  Level Miami Center
02:32PM 27.2564 -78.2117 123° Southeast 199 229 17,000  Level Miami Center
02:33PM 27.2236 -78.1553 132° Southeast 204 235 17,000  Level Miami Center
02:34PM 27.1883 -78.1106 122° Southeast 207 238 17,000  Level Miami Center
02:35PM 27.1556 -78.0517 126° Southeast 200 230 17,000 -300 Level Miami Center
02:36PM 27.1203 -77.9978 128° Southeast 205 236 16,500 -600 Descending Miami Center
02:37PM 27.0792 -77.9389 128° Southeast 218 251 15,900 -660 Descending Miami Center
02:38PM 27.0419 -77.8850 128° Southeast 225 259 15,200 -720 Descending Miami Center
02:39PM 27.0047 -77.8311 126° Southeast 225 259 14,500 -840 Descending Miami Center
02:40PM 26.9653 -77.7700 128° Southeast 225 259 13,600 -900 Descending Miami Center
02:41PM 26.9261 -77.7139 124° Southeast 231 266 12,800 -780 Descending Miami Center
02:42PM 26.8886 -77.6508 133° Southeast 223 257 12,100 -900 Descending Miami Center
02:43PM 26.8492 -77.6039 126° Southeast 223 257 11,100 -840 Descending Miami Center
02:44PM 26.8161 -77.5525 126° Southeast 223 257 10,500 -600 Descending Miami Center